Briefing drone pour Mirebeau-sur-beze

Rechercher une autre localisation

Conditions de vol :


Nous sommes le : Lundi 12 avril 2021
Il est 04:07 UTC (06:07 LT)

Lever de soleil : 04:28 UTC (06:28 LT)
Coucher de soleil : 18:50 UTC (20:50 LT)

Météo

L'essentiel des conditions de vol

VIGILANCE MÉTÉO FRANCE - Côte-dOr (21)
Vigilance Jaune : Neige-verglas
CARTE TEMSI
CARTES DES FRONTS
METAR de LFSD
LFSD 120400Z AUTO 33009KT CAVOK 04/00 Q1024

Date d'émission: 12/04/2021
Heure d'émission: 04:00 UTC
Vent: 330° pour 9 KT (17 km/h)
Visibilité horizontale: > 10 km
Plafond : Plafond et visibilité OK (CAVOK)
Température: 4 °C
Point de rosée: 0 °C
Humidité: 75%
Pression (QNH): 1024 hPa
TAF de LFSD
LFSD 010600Z 0100/0124 CNL

Conditions prévues :

Heure d'émission : Bulletin éffectué le 01 à 00:00 UTC
Prévision : Valide du 01 a 00:00 UTC au 01 a 23:59 UTC
Nuages : à 0ft (0 m)
WEBCAM POUR MIREBEAU-SUR-BEZE

Réglementation

Voler en sécurité

CARTES AERONAUTIQUE 1/500.000
CARTES VAC (LFSD)
SUP AIP




Chargement des AIP...
NOTAM (MIREBEAU-SUR-BEZE + Terrain à proximité / FIR )




Chargement des NOTAMS...
CONTACT PREFECTURE 21
Côte-dOr (21) : pref-drone@cote-dor.gouv.fr


Avertissement : Les données mises à disposition sont indicatives. Oxygène Drone ne pourra être tenu responsable de dégâts causés aux biens et aux personnes.